createdAt,value
2022-12-06T00:01:10.770Z,5.32
2022-12-06T00:03:40.491Z,6.53
2022-12-06T00:06:10.907Z,7.28
2022-12-06T00:08:39.788Z,5.60
2022-12-06T00:11:10.032Z,5.18
2022-12-06T00:13:40.741Z,4.93
2022-12-06T00:16:12.015Z,4.47
2022-12-06T00:18:41.679Z,4.68
2022-12-06T00:23:39.117Z,3.97
2022-12-06T00:26:08.905Z,3.97
2022-12-06T00:28:39.442Z,3.35
2022-12-06T00:31:09.624Z,3.80
2022-12-06T00:33:38.786Z,3.38
2022-12-06T00:36:09.391Z,2.25
2022-12-06T00:38:37.567Z,2.10
2022-12-06T00:41:08.316Z,1.80
2022-12-06T00:43:37.670Z,2.00
2022-12-06T00:46:09.829Z,1.80
2022-12-06T00:48:37.994Z,1.60
2022-12-06T00:51:06.639Z,1.63
2022-12-06T00:53:34.833Z,1.60
2022-12-06T00:56:03.340Z,1.63
2022-12-06T00:58:31.686Z,1.70
2022-12-06T01:01:10.435Z,2.00
2022-12-06T01:03:38.939Z,2.17
2022-12-06T01:06:08.763Z,2.78
2022-12-06T01:08:37.858Z,2.90
2022-12-06T01:11:06.440Z,3.28
2022-12-06T01:13:35.073Z,2.30
2022-12-06T01:16:06.850Z,3.10
2022-12-06T01:18:36.777Z,2.58
2022-12-06T01:21:06.170Z,2.95
2022-12-06T01:23:34.530Z,2.83
2022-12-06T01:26:02.840Z,3.08
2022-12-06T01:28:31.410Z,3.25
2022-12-06T01:30:59.560Z,2.97
2022-12-06T01:33:27.900Z,2.75
2022-12-06T01:35:57.530Z,2.20
2022-12-06T01:40:54.388Z,1.60
2022-12-06T01:43:38.041Z,1.63
2022-12-06T01:46:19.204Z,1.50
2022-12-06T01:48:48.737Z,1.40
2022-12-06T01:51:19.254Z,1.63
2022-12-06T01:53:49.752Z,1.58
2022-12-06T01:56:18.666Z,1.77
2022-12-06T01:58:48.030Z,1.35
2022-12-06T02:01:16.567Z,1.13
2022-12-06T02:03:47.542Z,0.90
2022-12-06T02:06:18.611Z,0.75
2022-12-06T02:08:48.109Z,1.13
2022-12-06T02:13:44.526Z,1.00
2022-12-06T02:16:33.390Z,1.00
2022-12-06T02:19:15.580Z,1.20
2022-12-06T02:21:52.869Z,1.00
2022-12-06T02:24:50.318Z,0.93
2022-12-06T02:27:51.545Z,1.00
2022-12-06T02:30:43.210Z,0.85
2022-12-06T02:33:17.125Z,0.73
2022-12-06T02:35:50.687Z,0.60
2022-12-06T02:38:25.390Z,0.65
2022-12-06T02:40:59.986Z,0.40
2022-12-06T02:43:34.125Z,0.70
2022-12-06T02:46:05.842Z,0.30
2022-12-06T02:48:35.461Z,0.50
2022-12-06T02:53:38.127Z,0.50
2022-12-06T02:56:07.118Z,0.32
2022-12-06T02:58:36.662Z,0.55
2022-12-06T03:04:01.744Z,0.77
2022-12-06T03:06:53.575Z,0.80
2022-12-06T03:09:42.024Z,0.68
2022-12-06T03:12:16.238Z,0.50
2022-12-06T03:14:50.606Z,0.60
2022-12-06T03:17:25.379Z,0.60
2022-12-06T03:19:59.718Z,0.57
2022-12-06T03:22:38.267Z,1.05
2022-12-06T03:25:10.588Z,0.50
2022-12-06T03:27:41.213Z,0.60
2022-12-06T03:30:12.863Z,0.57
2022-12-06T03:32:46.356Z,0.52
2022-12-06T03:35:18.893Z,0.75
2022-12-06T03:37:52.223Z,0.90
2022-12-06T03:40:22.421Z,0.80
2022-12-06T03:42:51.864Z,0.68
2022-12-06T03:45:21.776Z,0.60
2022-12-06T03:47:56.917Z,0.30
2022-12-06T03:50:31.738Z,0.40
2022-12-06T03:53:02.133Z,0.30
2022-12-06T03:55:30.355Z,0.38
2022-12-06T03:57:58.443Z,0.30
2022-12-06T04:00:26.685Z,0.30
2022-12-06T04:02:56.146Z,0.40
2022-12-06T04:05:24.467Z,0.28
2022-12-06T04:07:52.609Z,0.30
2022-12-06T04:10:20.824Z,0.30
2022-12-06T04:13:01.409Z,0.40
2022-12-06T04:15:31.455Z,0.20
2022-12-06T04:18:14.002Z,0.40
2022-12-06T04:21:02.577Z,0.40
2022-12-06T04:23:32.316Z,0.55
2022-12-06T04:26:00.492Z,0.80
2022-12-06T04:28:46.239Z,0.88
2022-12-06T04:31:32.193Z,1.02
2022-12-06T04:34:19.352Z,0.82
2022-12-06T04:37:05.802Z,0.45
2022-12-06T04:39:34.599Z,0.40
2022-12-06T04:42:20.738Z,0.32
2022-12-06T04:44:49.096Z,0.40
2022-12-06T04:47:17.235Z,0.50
2022-12-06T04:49:46.979Z,0.60
2022-12-06T04:52:15.283Z,0.60
2022-12-06T04:54:43.795Z,0.90
2022-12-06T04:57:13.806Z,0.50
2022-12-06T04:59:43.569Z,0.73
2022-12-06T05:02:14.096Z,0.60
2022-12-06T05:04:42.348Z,0.50
2022-12-06T05:07:12.129Z,0.60
2022-12-06T05:09:40.300Z,0.40
2022-12-06T05:12:08.951Z,0.40
2022-12-06T05:14:37.142Z,0.70
2022-12-06T05:17:05.223Z,0.98
2022-12-06T05:19:33.479Z,0.80
2022-12-06T05:22:01.707Z,0.73
2022-12-06T05:24:31.452Z,1.00
2022-12-06T05:26:59.577Z,0.90
2022-12-06T05:29:27.740Z,0.85
2022-12-06T05:31:56.044Z,0.90
2022-12-06T05:34:25.015Z,1.20
2022-12-06T05:36:53.296Z,0.88
2022-12-06T05:39:22.337Z,1.15
2022-12-06T05:41:51.877Z,1.30
2022-12-06T05:46:48.760Z,1.00
2022-12-06T05:49:16.966Z,1.10
2022-12-06T05:51:45.419Z,1.00
2022-12-06T05:54:13.620Z,1.10
2022-12-06T05:56:41.848Z,1.17
2022-12-06T05:59:12.041Z,1.55
2022-12-06T06:01:40.159Z,2.00
2022-12-06T06:04:08.695Z,1.55
2022-12-06T06:06:36.870Z,1.40
2022-12-06T06:09:05.053Z,1.70
2022-12-06T06:11:33.209Z,2.53
2022-12-06T06:14:01.503Z,2.53
2022-12-06T06:16:32.758Z,2.40
2022-12-06T06:19:01.745Z,2.63
2022-12-06T06:21:30.089Z,2.38
2022-12-06T06:23:58.863Z,2.83
2022-12-06T06:26:27.198Z,2.80
2022-12-06T06:28:55.292Z,3.00
2022-12-06T06:31:23.431Z,2.67
2022-12-06T06:33:53.093Z,2.92
2022-12-06T06:38:49.103Z,2.72
2022-12-06T06:41:17.303Z,2.83
2022-12-06T06:43:46.602Z,2.00
2022-12-06T06:46:14.844Z,1.65
2022-12-06T06:48:42.969Z,2.45
2022-12-06T06:51:14.819Z,3.45
2022-12-06T06:53:42.934Z,28.15
2022-12-06T06:56:11.209Z,15.88
2022-12-06T06:58:39.373Z,78.30
2022-12-06T07:01:09.420Z,52.85
2022-12-06T07:03:37.538Z,13.48
2022-12-06T07:06:08.822Z,18.90
2022-12-06T07:08:39.658Z,307.50
2022-12-06T07:11:07.856Z,198.85
2022-12-06T07:13:37.405Z,96.78
2022-12-06T07:18:34.657Z,14.43
2022-12-06T07:21:05.051Z,22.85
2022-12-06T07:23:34.887Z,29.73
2022-12-06T07:26:06.213Z,18.38
2022-12-06T07:28:36.720Z,20.33
2022-12-06T07:31:12.751Z,31.67
2022-12-06T07:33:42.669Z,18.63
2022-12-06T07:36:13.711Z,23.15
2022-12-06T07:38:43.175Z,20.00
2022-12-06T07:41:31.679Z,21.15
2022-12-06T07:44:18.612Z,20.03
2022-12-06T07:46:47.893Z,22.77
2022-12-06T07:49:16.860Z,19.50
2022-12-06T07:51:45.638Z,18.25
2022-12-06T07:54:14.249Z,14.88
2022-12-06T07:56:44.402Z,18.07
2022-12-06T07:59:13.109Z,17.52
2022-12-06T08:01:41.417Z,17.42
2022-12-06T08:04:09.742Z,15.55
2022-12-06T08:06:38.667Z,14.98
2022-12-06T08:09:07.675Z,14.65
2022-12-06T08:11:36.596Z,11.02
2022-12-06T08:14:06.469Z,8.52
2022-12-06T08:16:34.727Z,10.57
2022-12-06T08:19:03.327Z,8.77
2022-12-06T08:21:31.563Z,7.63
2022-12-06T08:23:59.684Z,6.88
2022-12-06T08:26:27.849Z,6.95
2022-12-06T08:28:55.954Z,6.20
2022-12-06T08:31:26.041Z,5.00
2022-12-06T08:33:54.270Z,4.50
2022-12-06T08:36:24.549Z,5.82
2022-12-06T08:38:53.407Z,6.22
2022-12-06T08:41:40.956Z,4.10
2022-12-06T08:44:11.202Z,4.00
2022-12-06T08:46:41.347Z,3.88
2022-12-06T08:49:10.211Z,4.60
2022-12-06T08:51:38.950Z,3.88
2022-12-06T08:54:08.209Z,4.43
2022-12-06T08:56:38.307Z,5.00
2022-12-06T08:59:07.071Z,4.22
2022-12-06T09:01:38.038Z,3.88
2022-12-06T09:04:09.689Z,4.95
2022-12-06T09:06:39.834Z,4.30
2022-12-06T09:09:08.883Z,4.63
2022-12-06T09:11:37.341Z,3.65
2022-12-06T09:14:05.689Z,4.40
2022-12-06T09:16:34.110Z,4.32
2022-12-06T09:19:02.925Z,4.45
2022-12-06T09:21:34.268Z,4.05
2022-12-06T09:24:02.627Z,4.60
2022-12-06T09:26:30.858Z,4.60
2022-12-06T09:29:00.100Z,4.90
2022-12-06T09:31:28.638Z,4.55
2022-12-06T09:33:56.949Z,5.20
2022-12-06T09:36:27.742Z,6.03
2022-12-06T09:39:01.672Z,6.82
2022-12-06T09:42:17.367Z,7.22
2022-12-06T09:45:10.474Z,7.15
2022-12-06T09:47:50.532Z,7.07
2022-12-06T09:50:27.823Z,7.70
2022-12-06T09:53:08.896Z,11.55
2022-12-06T09:55:51.636Z,9.60
2022-12-06T09:58:30.528Z,7.95
2022-12-06T10:01:09.494Z,5.82
2022-12-06T10:04:12.099Z,8.50
2022-12-06T10:06:45.681Z,8.40
2022-12-06T10:09:26.599Z,9.43
2022-12-06T10:12:13.183Z,9.27
2022-12-06T10:15:00.502Z,9.00
2022-12-06T10:17:41.048Z,10.98
2022-12-06T10:20:16.155Z,8.85
2022-12-06T10:22:55.555Z,8.48
2022-12-06T10:25:27.021Z,7.90
2022-12-06T10:28:09.832Z,8.45
2022-12-06T10:30:45.709Z,8.68
2022-12-06T10:33:20.850Z,7.20
2022-12-06T10:35:54.196Z,8.30
2022-12-06T10:38:28.602Z,8.23
2022-12-06T10:41:06.341Z,7.43
2022-12-06T10:43:43.501Z,6.78
2022-12-06T10:46:35.229Z,5.25
2022-12-06T10:49:08.593Z,6.07
2022-12-06T10:51:42.991Z,5.13
2022-12-06T10:54:21.215Z,5.13
2022-12-06T10:56:52.646Z,3.83
2022-12-06T10:59:37.722Z,6.00
2022-12-06T11:02:23.690Z,4.78
2022-12-06T11:04:56.674Z,7.55
2022-12-06T11:07:29.494Z,7.97
2022-12-06T11:09:58.580Z,5.70
2022-12-06T11:12:31.656Z,4.40
2022-12-06T11:15:08.523Z,4.75
2022-12-06T11:17:42.528Z,3.83
2022-12-06T11:20:26.915Z,4.18
2022-12-06T11:23:12.246Z,3.50
2022-12-06T11:25:54.655Z,3.53
2022-12-06T11:28:35.759Z,3.30
2022-12-06T11:31:12.537Z,2.60
2022-12-06T11:33:40.874Z,2.20
2022-12-06T11:36:10.015Z,3.17
2022-12-06T11:38:41.847Z,2.53
2022-12-06T11:41:14.882Z,2.75
2022-12-06T11:43:43.577Z,2.75
2022-12-06T11:46:15.004Z,3.05
2022-12-06T11:48:44.440Z,2.60
2022-12-06T11:51:18.166Z,1.98
2022-12-06T11:54:06.072Z,1.80
2022-12-06T11:56:38.155Z,2.30
2022-12-06T11:59:26.371Z,2.28
2022-12-06T12:01:57.994Z,2.03
2022-12-06T12:04:34.439Z,4.13
2022-12-06T12:07:06.379Z,2.95
2022-12-06T12:09:37.970Z,2.88
2022-12-06T12:12:14.081Z,2.53
2022-12-06T12:14:49.538Z,2.90
2022-12-06T12:17:24.976Z,3.03
2022-12-06T12:19:58.999Z,2.47
2022-12-06T12:22:35.239Z,2.40
2022-12-06T12:25:23.349Z,3.47
2022-12-06T12:27:53.051Z,3.08
2022-12-06T12:33:15.118Z,2.15
2022-12-06T12:35:45.665Z,2.40
2022-12-06T12:38:33.471Z,3.47
2022-12-06T12:41:05.226Z,2.90
2022-12-06T12:43:35.401Z,3.30
2022-12-06T12:46:09.081Z,3.00
2022-12-06T12:48:39.822Z,4.70
2022-12-06T12:51:23.224Z,3.15
2022-12-06T12:53:56.468Z,3.55
2022-12-06T12:56:24.900Z,2.92
2022-12-06T12:58:55.842Z,3.10
2022-12-06T13:01:34.507Z,3.47
2022-12-06T13:04:13.619Z,3.80
2022-12-06T13:06:49.499Z,3.10
2022-12-06T13:09:25.373Z,4.20
2022-12-06T13:11:57.813Z,3.72
2022-12-06T13:14:28.134Z,3.40
2022-12-06T13:16:58.893Z,3.83
2022-12-06T13:19:35.606Z,3.80
2022-12-06T13:22:05.974Z,5.80
2022-12-06T13:24:37.513Z,4.75
2022-12-06T13:27:14.204Z,4.70
2022-12-06T13:29:46.562Z,6.07
2022-12-06T13:32:17.499Z,4.78
2022-12-06T13:34:51.606Z,5.10
2022-12-06T13:37:29.435Z,5.85
2022-12-06T13:39:58.366Z,6.55
2022-12-06T13:42:45.534Z,6.78
2022-12-06T13:45:39.003Z,6.82
2022-12-06T13:48:45.804Z,7.15
2022-12-06T13:51:47.611Z,6.15
2022-12-06T13:54:37.073Z,6.43
2022-12-06T13:57:23.752Z,6.95
2022-12-06T13:59:52.655Z,6.40
2022-12-06T14:02:54.258Z,6.63
2022-12-06T14:08:33.315Z,6.22
2022-12-06T14:11:19.455Z,5.35
2022-12-06T14:13:49.902Z,6.20
2022-12-06T14:16:23.915Z,6.25
2022-12-06T14:18:54.651Z,6.40
2022-12-06T14:21:26.966Z,5.63
2022-12-06T14:23:56.621Z,5.43
2022-12-06T14:26:27.107Z,7.45
2022-12-06T14:28:57.511Z,7.20
2022-12-06T14:31:29.730Z,8.57
2022-12-06T14:33:58.815Z,7.38
2022-12-06T14:36:30.334Z,7.35
2022-12-06T14:39:07.506Z,8.38
2022-12-06T14:41:55.668Z,8.20
2022-12-06T14:44:30.529Z,7.75
2022-12-06T14:46:59.563Z,8.77
2022-12-06T14:49:47.397Z,6.50
2022-12-06T14:52:24.728Z,7.97
2022-12-06T14:55:14.348Z,8.57
2022-12-06T14:57:46.650Z,8.75
2022-12-06T15:00:25.800Z,8.18
2022-12-06T15:03:22.835Z,7.35
2022-12-06T15:05:57.494Z,7.63
2022-12-06T15:08:34.224Z,8.15
2022-12-06T15:11:06.058Z,6.95
2022-12-06T15:13:33.591Z,6.95
2022-12-06T15:16:13.944Z,6.93
2022-12-06T15:18:45.905Z,7.70
2022-12-06T15:21:15.702Z,7.95
2022-12-06T15:23:49.616Z,8.10
2022-12-06T15:26:21.896Z,8.10
2022-12-06T15:28:51.425Z,7.38
2022-12-06T15:36:19.128Z,9.57
2022-12-06T15:38:47.343Z,9.65
2022-12-06T15:41:19.553Z,9.50
2022-12-06T15:43:48.691Z,8.45
2022-12-06T15:46:20.553Z,9.23
2022-12-06T15:48:48.834Z,9.48
2022-12-06T15:51:20.866Z,9.90
2022-12-06T15:53:50.676Z,8.80
2022-12-06T15:58:52.015Z,8.85
2022-12-06T16:03:49.800Z,7.90
2022-12-06T16:06:21.721Z,9.40
2022-12-06T16:08:50.020Z,14.07
2022-12-06T16:11:21.506Z,12.32
2022-12-06T16:13:50.679Z,13.23
2022-12-06T16:16:20.440Z,14.63
2022-12-06T16:18:49.255Z,16.20
2022-12-06T16:21:21.753Z,16.20
2022-12-06T16:24:17.454Z,16.58
2022-12-06T16:26:47.799Z,13.63
2022-12-06T16:29:17.736Z,13.75
2022-12-06T16:31:46.597Z,13.48
2022-12-06T16:34:15.611Z,12.70
2022-12-06T16:37:01.522Z,11.80
2022-12-06T16:39:31.423Z,13.90
2022-12-06T16:42:01.180Z,18.98
2022-12-06T16:44:29.718Z,21.08
2022-12-06T16:46:58.170Z,23.43
2022-12-06T16:49:46.499Z,25.05
2022-12-06T16:52:15.444Z,22.35
2022-12-06T16:54:44.037Z,26.63
2022-12-06T16:57:14.738Z,32.97
2022-12-06T16:59:43.383Z,31.25
2022-12-06T17:02:26.538Z,27.02
2022-12-06T17:04:55.032Z,25.40
2022-12-06T17:07:23.595Z,17.33
2022-12-06T17:09:51.800Z,16.63
2022-12-06T17:12:21.740Z,28.65
2022-12-06T17:14:49.904Z,21.77
2022-12-06T17:17:21.368Z,19.50
2022-12-06T17:19:50.652Z,18.35
2022-12-06T17:22:19.871Z,16.60
2022-12-06T17:24:48.216Z,16.55
2022-12-06T17:27:18.412Z,14.77
2022-12-06T17:29:47.986Z,14.95
2022-12-06T17:34:44.326Z,14.32
2022-12-06T17:37:12.460Z,14.15
2022-12-06T17:39:40.835Z,15.10
2022-12-06T17:42:26.438Z,13.90
2022-12-06T17:44:56.171Z,13.50
2022-12-06T17:47:24.405Z,15.35
2022-12-06T17:49:52.761Z,16.23
2022-12-06T17:52:20.913Z,14.65
2022-12-06T17:54:49.156Z,14.80
2022-12-06T17:57:18.711Z,15.07
2022-12-06T17:59:48.509Z,14.32
2022-12-06T18:02:20.204Z,14.57
2022-12-06T18:04:48.806Z,15.02
2022-12-06T18:07:18.281Z,14.80
2022-12-06T18:09:46.733Z,13.30
2022-12-06T18:12:16.268Z,16.58
2022-12-06T18:17:13.122Z,21.98
2022-12-06T18:19:46.665Z,23.35
2022-12-06T18:22:15.493Z,22.88
2022-12-06T18:24:44.826Z,21.88
2022-12-06T18:27:13.448Z,20.10
2022-12-06T18:29:41.643Z,19.45
2022-12-06T18:32:10.117Z,16.23
2022-12-06T18:34:38.429Z,14.73
2022-12-06T18:37:07.912Z,13.90
2022-12-06T18:39:36.168Z,13.88
2022-12-06T18:42:04.325Z,14.25
2022-12-06T18:44:32.501Z,14.52
2022-12-06T18:47:00.677Z,15.55
2022-12-06T18:49:29.070Z,15.88
2022-12-06T18:51:57.145Z,16.50
2022-12-06T18:54:28.207Z,16.15
2022-12-06T18:56:58.330Z,18.25
2022-12-06T18:59:28.006Z,17.08
2022-12-06T19:01:56.877Z,17.88
2022-12-06T19:04:25.174Z,22.58
2022-12-06T19:06:54.463Z,20.52
2022-12-06T19:09:23.574Z,17.20
2022-12-06T19:11:53.138Z,21.15
2022-12-06T19:16:52.647Z,21.60
2022-12-06T19:21:51.106Z,20.10
2022-12-06T19:24:21.647Z,17.48
2022-12-06T19:26:53.385Z,17.55
2022-12-06T19:29:22.129Z,16.27
2022-12-06T19:31:50.725Z,16.77
2022-12-06T19:34:20.539Z,14.93
2022-12-06T19:36:50.371Z,12.52
2022-12-06T19:39:19.425Z,12.85
2022-12-06T19:42:05.367Z,15.40
2022-12-06T19:44:35.437Z,17.73
2022-12-06T19:47:03.669Z,17.90
2022-12-06T19:49:31.798Z,16.55
2022-12-06T19:51:59.916Z,16.58
2022-12-06T19:54:30.197Z,16.63
2022-12-06T19:56:59.848Z,15.98
2022-12-06T19:59:29.932Z,16.20
2022-12-06T20:01:59.781Z,22.45
2022-12-06T20:04:29.784Z,27.60
2022-12-06T20:06:58.582Z,25.58
2022-12-06T20:09:29.146Z,22.23
2022-12-06T20:12:02.113Z,19.50
2022-12-06T20:14:31.823Z,17.85
2022-12-06T20:17:01.557Z,16.08
2022-12-06T20:19:30.424Z,14.95
2022-12-06T20:21:58.605Z,15.07
2022-12-06T20:24:27.022Z,16.75
2022-12-06T20:26:56.786Z,24.58
2022-12-06T20:29:27.020Z,36.70
2022-12-06T20:31:58.017Z,40.00
2022-12-06T20:34:29.503Z,36.78
2022-12-06T20:36:57.887Z,24.80
2022-12-06T20:39:28.657Z,29.10
2022-12-06T20:41:57.012Z,31.42
2022-12-06T20:44:25.179Z,30.10
2022-12-06T20:46:54.274Z,33.70
2022-12-06T20:49:22.461Z,36.30
2022-12-06T20:51:53.663Z,42.33
2022-12-06T20:54:23.034Z,46.47
2022-12-06T20:56:53.446Z,46.05
2022-12-06T20:59:22.107Z,37.50
2022-12-06T21:01:50.641Z,19.00
2022-12-06T21:04:18.907Z,24.00
2022-12-06T21:06:47.136Z,22.05
2022-12-06T21:09:17.049Z,22.38
2022-12-06T21:11:45.138Z,20.20
2022-12-06T21:14:14.854Z,20.45
2022-12-06T21:16:44.056Z,21.38
2022-12-06T21:19:14.374Z,21.98
2022-12-06T21:21:46.194Z,17.77
2022-12-06T21:24:17.498Z,18.38
2022-12-06T21:26:45.749Z,16.08
2022-12-06T21:29:16.970Z,15.82
2022-12-06T21:31:45.946Z,14.73
2022-12-06T21:34:14.384Z,11.65
2022-12-06T21:36:43.000Z,15.13
2022-12-06T21:39:12.843Z,15.67
2022-12-06T21:41:43.066Z,15.27
2022-12-06T21:44:11.210Z,15.65
2022-12-06T21:46:39.547Z,15.88
2022-12-06T21:49:08.024Z,14.93
2022-12-06T21:51:36.133Z,15.85
2022-12-06T21:54:04.566Z,15.68
2022-12-06T21:56:34.085Z,17.38
2022-12-06T22:01:32.754Z,17.35
2022-12-06T22:06:31.509Z,16.17
2022-12-06T22:09:01.877Z,17.88
2022-12-06T22:11:30.929Z,17.33
2022-12-06T22:13:59.970Z,17.02
2022-12-06T22:16:30.276Z,16.73
2022-12-06T22:18:58.536Z,16.45
2022-12-06T22:21:29.044Z,16.95
2022-12-06T22:23:58.560Z,19.95
2022-12-06T22:28:57.123Z,18.38
2022-12-06T22:31:26.978Z,17.58
2022-12-06T22:33:58.564Z,16.48
2022-12-06T22:36:27.661Z,17.45
2022-12-06T22:38:57.095Z,19.77
2022-12-06T22:41:26.230Z,22.88
2022-12-06T22:43:56.441Z,20.30
2022-12-06T22:46:26.522Z,17.88
2022-12-06T22:48:57.437Z,16.63
2022-12-06T22:51:28.104Z,16.85
2022-12-06T22:53:57.949Z,18.90
2022-12-06T22:56:26.847Z,17.15
2022-12-06T22:58:55.742Z,13.50
2022-12-06T23:01:26.027Z,11.05
2022-12-06T23:03:56.847Z,13.27
2022-12-06T23:06:26.705Z,14.52
2022-12-06T23:08:55.746Z,14.55
2022-12-06T23:11:25.846Z,14.00
2022-12-06T23:13:54.834Z,13.70
2022-12-06T23:16:25.051Z,13.15
2022-12-06T23:18:53.647Z,13.40
2022-12-06T23:21:25.335Z,12.80
2022-12-06T23:23:55.785Z,13.45
2022-12-06T23:26:26.371Z,13.60
2022-12-06T23:28:55.058Z,13.68
2022-12-06T23:31:24.950Z,14.07
2022-12-06T23:33:54.653Z,15.75
2022-12-06T23:36:26.406Z,14.60
2022-12-06T23:38:55.215Z,14.25
2022-12-06T23:41:25.285Z,13.88
2022-12-06T23:43:54.776Z,15.43
2022-12-06T23:46:25.301Z,13.77
2022-12-06T23:48:53.827Z,15.68
2022-12-06T23:51:25.472Z,14.38
2022-12-06T23:53:56.932Z,15.25
2022-12-06T23:56:26.546Z,14.85
